ADDS METAR Data INFO
IDs: Format: Raw Decoded Include TAF

Data at: 1846 UTC 17 Oct 2017

KLGA 171751Z 00000KT 10SM CLR 14/M02 A3029 RMK AO2 SLP256 T01441017 10144 20078 58016
KLGA 171651Z 00000KT 10SM CLR 13/M02 A3031 RMK AO2 SLP264 T01281017
KLGA 171551Z VRB05KT 10SM R04/3500VP6000FT CLR 12/M02 A3032 RMK AO2 SLP268 T01171022
KLGA 171451Z 03009KT 10SM CLR 10/M02 A3034 RMK AO2 SLP272 T01001017 50002
KLGA 171351Z 02009KT 10SM FEW032 09/M01 A3035 RMK AO2 SLP277 T00941006
KLGA 171251Z 02012KT 10SM FEW027 08/01 A3035 RMK AO2 SLP277 T00830006
KLGA 171151Z 01010KT 10SM FEW027 08/01 A3033 RMK AO2 SLP270 T00780011 10089 20072 51022
KLGA 171051Z 02011KT 10SM FEW028 08/01 A3031 RMK AO2 SLP263 T00780011
KLGA 170951Z 36009KT 10SM CLR 08/02 A3029 RMK AO2 SLP256 T00780017
KLGA 170851Z 35007KT 10SM CLR 08/02 A3026 RMK AO2 SLP248 T00780017 53010
KLGA 170751Z 34008KT 10SM CLR 08/01 A3024 RMK AO2 SLP241 T00830011
KLGA 170651Z 33009KT 10SM CLR 08/01 A3024 RMK AO2 SLP240 T00830011
KLGA 170551Z 33010KT 10SM CLR 09/00 A3023 RMK AO2 SLP237 T00890000 10128 20089 53013
KLGA 170451Z 34012KT 10SM CLR 09/00 A3021 RMK AO2 SLP231 T00890000 402170089
KLGA 170351Z 33015G21KT 10SM CLR 10/01 A3021 RMK AO2 SLP228 T01000006
KLGA 170251Z 33017G23KT 10SM CLR 11/01 A3020 RMK AO2 PK WND 32026/0159 SLP225 T01060006 51022
KLGA 170151Z 34015KT 10SM FEW050 SCT250 11/02 A3019 RMK AO2 SLP221 T01110017
KLGA 170051Z 34012G20KT 10SM FEW050 12/03 A3016 RMK AO2 SLP211 T01220028
KLGA 162351Z 32013G22KT 10SM CLR 13/03 A3013 RMK AO2 PK WND 34027/2316 SLP203 T01280028 10150 20128 53027
KLGA 162251Z COR 31015G19KT 10SM BKN050 BKN250 14/04 A3009 RMK AO2 SLP190 T01390044
KLGA 162151Z 33012KT 10SM FEW045 BKN250 14/04 A3007 RMK AO2 SLP183 T01390039
KLGA 162051Z 31014G21KT 10SM FEW045 BKN250 14/04 A3005 RMK AO2 SLP176 T01390044 53015
KLGA 161951Z 30015KT 10SM BKN045 BKN250 14/06 A3003 RMK AO2 SLP169 T01440056
KLGA 161851Z 31015G21KT 10SM SCT045 BKN180 14/06 A3001 RMK AO2 SLP163 T01440056
KLGA 161751Z 32017KT 10SM FEW042 BKN170 14/05 A3001 RMK AO2 SLP160 60000 T01440050 10156 20139 51002
KLGA 161651Z 32016G20KT 10SM FEW035 OVC180 14/06 A2999 RMK AO2 SLP156 T01440061 $
KLGA 161551Z 30016G20KT 10SM SCT035 BKN160 14/06 A3002 RMK AO2 SLP167 T01390061 $
KLGA 161451Z 32016KT 10SM FEW035 BKN160 14/06 A3000 RMK AO2 SLP158 60000 T01390061 51022 $
KLGA 161351Z 32014KT 10SM FEW040 FEW055 SCT110 BKN140 14/06 A2999 RMK AO2 RAB31E49 SLP156 P0000 T01390061 $
KLGA 161251Z 32020G27KT 10SM FEW025 FEW075 BKN130 14/07 A2997 RMK AO2 PK WND 29028/1200 RAB46E49 SLP148 P0000 T01440067 $
KLGA 161151Z 31019G25KT 10SM FEW024 FEW085 OVC140 16/08 A2994 RMK AO2 SLP137 60000 70001 T01560078 10211 20156 53029 $
KLGA 161051Z 32017KT 10SM FEW080 OVC120 17/09 A2990 RMK AO2 SLP125 T01670094 $
KLGA 160951Z 32015G23KT 10SM FEW018 SCT070 OVC110 17/11 A2988 RMK AO2 RAE14 SLP117 P0000 T01670106 $
KLGA 160851Z 30009KT 10SM -RA SCT070 OVC090 17/13 A2985 RMK AO2 RAB28 SLP107 P0000 60000 T01720133 51016 $
KLGA 160751Z 32017G29KT 10SM FEW050 OVC090 19/12 A2983 RMK AO2 PK WND 31029/0749 RAB18E27 SLP100 P0000 T01890122 $
KLGA 160705Z 30012KT 10SM FEW021 SCT028 OVC044 20/16 A2982 RMK AO2 T02000161 $
KLGA 160651Z 31013KT 10SM BKN024 OVC029 20/16 A2982 RMK AO2 SLP099 T02000161 $